sensor_id;sensor_type;location;lat;lon;timestamp;P1;durP1;ratioP1;P2;durP2;ratioP2
77384;SDS011;66443;49.122;8.346;2022-12-29T00:01:07;2.17;;;1.58;;
77384;SDS011;66443;49.122;8.346;2022-12-29T00:03:32;2.30;;;1.80;;
77384;SDS011;66443;49.122;8.346;2022-12-29T00:05:58;2.08;;;1.83;;
77384;SDS011;66443;49.122;8.346;2022-12-29T00:08:23;1.57;;;1.47;;
77384;SDS011;66443;49.122;8.346;2022-12-29T00:11:04;3.27;;;1.87;;
77384;SDS011;66443;49.122;8.346;2022-12-29T00:13:29;2.70;;;1.83;;
77384;SDS011;66443;49.122;8.346;2022-12-29T00:16:13;2.70;;;1.80;;
77384;SDS011;66443;49.122;8.346;2022-12-29T00:18:38;2.40;;;1.90;;
77384;SDS011;66443;49.122;8.346;2022-12-29T00:21:03;1.90;;;1.80;;
77384;SDS011;66443;49.122;8.346;2022-12-29T00:23:47;2.27;;;1.77;;
77384;SDS011;66443;49.122;8.346;2022-12-29T00:26:31;1.87;;;1.53;;
77384;SDS011;66443;49.122;8.346;2022-12-29T00:29:15;3.40;;;2.13;;
77384;SDS011;66443;49.122;8.346;2022-12-29T00:31:59;2.83;;;2.00;;
77384;SDS011;66443;49.122;8.346;2022-12-29T00:34:43;2.27;;;2.03;;
77384;SDS011;66443;49.122;8.346;2022-12-29T00:37:27;2.70;;;1.50;;
77384;SDS011;66443;49.122;8.346;2022-12-29T00:40:12;1.70;;;1.60;;
77384;SDS011;66443;49.122;8.346;2022-12-29T00:42:56;2.73;;;1.60;;
77384;SDS011;66443;49.122;8.346;2022-12-29T00:45:43;1.97;;;1.60;;
77384;SDS011;66443;49.122;8.346;2022-12-29T00:48:08;2.30;;;2.00;;
77384;SDS011;66443;49.122;8.346;2022-12-29T00:50:33;2.17;;;1.73;;
77384;SDS011;66443;49.122;8.346;2022-12-29T00:52:58;1.75;;;1.65;;
77384;SDS011;66443;49.122;8.346;2022-12-29T00:55:24;2.53;;;1.70;;
77384;SDS011;66443;49.122;8.346;2022-12-29T00:57:49;2.95;;;1.50;;
77384;SDS011;66443;49.122;8.346;2022-12-29T01:00:14;2.13;;;1.42;;
77384;SDS011;66443;49.122;8.346;2022-12-29T01:02:39;2.70;;;1.40;;
77384;SDS011;66443;49.122;8.346;2022-12-29T01:05:04;2.75;;;1.40;;
77384;SDS011;66443;49.122;8.346;2022-12-29T01:07:29;2.33;;;1.43;;
77384;SDS011;66443;49.122;8.346;2022-12-29T01:09:55;2.60;;;1.40;;
77384;SDS011;66443;49.122;8.346;2022-12-29T01:12:35;2.37;;;1.60;;
77384;SDS011;66443;49.122;8.346;2022-12-29T01:15:07;1.90;;;1.40;;
77384;SDS011;66443;49.122;8.346;2022-12-29T01:17:32;1.63;;;1.40;;
77384;SDS011;66443;49.122;8.346;2022-12-29T01:19:57;2.00;;;1.60;;
77384;SDS011;66443;49.122;8.346;2022-12-29T01:22:22;4.67;;;1.30;;
77384;SDS011;66443;49.122;8.346;2022-12-29T01:24:48;1.38;;;1.27;;
77384;SDS011;66443;49.122;8.346;2022-12-29T01:27:13;1.77;;;1.40;;
77384;SDS011;66443;49.122;8.346;2022-12-29T01:29:39;1.58;;;1.30;;
77384;SDS011;66443;49.122;8.346;2022-12-29T01:32:04;1.70;;;1.42;;
77384;SDS011;66443;49.122;8.346;2022-12-29T01:34:29;2.50;;;1.60;;
77384;SDS011;66443;49.122;8.346;2022-12-29T01:36:54;1.35;;;1.25;;
77384;SDS011;66443;49.122;8.346;2022-12-29T01:39:19;2.87;;;1.60;;
77384;SDS011;66443;49.122;8.346;2022-12-29T01:41:45;2.27;;;1.50;;
77384;SDS011;66443;49.122;8.346;2022-12-29T01:46:54;1.43;;;1.33;;
77384;SDS011;66443;49.122;8.346;2022-12-29T01:49:21;2.93;;;2.30;;
77384;SDS011;66443;49.122;8.346;2022-12-29T01:51:51;1.40;;;1.20;;
77384;SDS011;66443;49.122;8.346;2022-12-29T01:54:22;1.20;;;1.13;;
77384;SDS011;66443;49.122;8.346;2022-12-29T01:56:50;2.43;;;1.33;;
77384;SDS011;66443;49.122;8.346;2022-12-29T01:59:17;2.27;;;1.23;;
77384;SDS011;66443;49.122;8.346;2022-12-29T02:01:43;2.50;;;1.20;;
77384;SDS011;66443;49.122;8.346;2022-12-29T02:04:09;1.87;;;1.20;;
77384;SDS011;66443;49.122;8.346;2022-12-29T02:06:37;2.33;;;1.37;;
77384;SDS011;66443;49.122;8.346;2022-12-29T02:09:04;1.93;;;1.27;;
77384;SDS011;66443;49.122;8.346;2022-12-29T02:11:29;1.23;;;1.13;;
77384;SDS011;66443;49.122;8.346;2022-12-29T02:13:56;2.70;;;1.23;;
77384;SDS011;66443;49.122;8.346;2022-12-29T02:18:57;3.10;;;1.58;;
77384;SDS011;66443;49.122;8.346;2022-12-29T02:21:36;1.90;;;1.13;;
77384;SDS011;66443;49.122;8.346;2022-12-29T02:26:40;1.80;;;1.27;;
77384;SDS011;66443;49.122;8.346;2022-12-29T02:31:46;2.03;;;1.00;;
77384;SDS011;66443;49.122;8.346;2022-12-29T02:34:20;2.70;;;1.10;;
77384;SDS011;66443;49.122;8.346;2022-12-29T02:42:23;2.20;;;1.47;;
77384;SDS011;66443;49.122;8.346;2022-12-29T02:44:55;1.90;;;1.67;;
77384;SDS011;66443;49.122;8.346;2022-12-29T02:47:28;1.30;;;1.20;;
77384;SDS011;66443;49.122;8.346;2022-12-29T02:49:57;1.30;;;1.20;;
77384;SDS011;66443;49.122;8.346;2022-12-29T02:52:28;2.10;;;1.33;;
77384;SDS011;66443;49.122;8.346;2022-12-29T02:54:55;2.63;;;1.03;;
77384;SDS011;66443;49.122;8.346;2022-12-29T02:59:46;1.13;;;0.80;;
77384;SDS011;66443;49.122;8.346;2022-12-29T03:13:02;0.87;;;0.87;;
77384;SDS011;66443;49.122;8.346;2022-12-29T03:15:54;1.33;;;1.10;;
77384;SDS011;66443;49.122;8.346;2022-12-29T03:18:39;1.47;;;0.80;;
77384;SDS011;66443;49.122;8.346;2022-12-29T03:21:11;1.60;;;1.00;;
77384;SDS011;66443;49.122;8.346;2022-12-29T03:23:36;5.47;;;1.10;;
77384;SDS011;66443;49.122;8.346;2022-12-29T03:26:03;2.07;;;1.10;;
77384;SDS011;66443;49.122;8.346;2022-12-29T03:28:37;2.63;;;1.20;;
77384;SDS011;66443;49.122;8.346;2022-12-29T03:31:03;1.80;;;1.23;;
77384;SDS011;66443;49.122;8.346;2022-12-29T03:33:29;1.57;;;1.00;;
77384;SDS011;66443;49.122;8.346;2022-12-29T03:36:00;1.03;;;1.00;;
77384;SDS011;66443;49.122;8.346;2022-12-29T03:38:29;2.30;;;1.47;;
77384;SDS011;66443;49.122;8.346;2022-12-29T03:40:56;1.30;;;1.20;;
77384;SDS011;66443;49.122;8.346;2022-12-29T03:43:23;1.57;;;1.47;;
77384;SDS011;66443;49.122;8.346;2022-12-29T03:45:48;1.40;;;1.20;;
77384;SDS011;66443;49.122;8.346;2022-12-29T03:48:13;2.23;;;1.00;;
77384;SDS011;66443;49.122;8.346;2022-12-29T03:50:38;1.30;;;1.10;;
77384;SDS011;66443;49.122;8.346;2022-12-29T03:53:04;3.00;;;1.37;;
77384;SDS011;66443;49.122;8.346;2022-12-29T03:55:29;0.88;;;0.88;;
77384;SDS011;66443;49.122;8.346;2022-12-29T03:57:54;1.70;;;1.20;;
77384;SDS011;66443;49.122;8.346;2022-12-29T04:00:19;1.17;;;1.07;;
77384;SDS011;66443;49.122;8.346;2022-12-29T04:02:44;2.07;;;1.27;;
77384;SDS011;66443;49.122;8.346;2022-12-29T04:05:09;1.90;;;1.05;;
77384;SDS011;66443;49.122;8.346;2022-12-29T04:07:35;1.40;;;1.30;;
77384;SDS011;66443;49.122;8.346;2022-12-29T04:10:00;0.73;;;0.73;;
77384;SDS011;66443;49.122;8.346;2022-12-29T04:12:25;1.77;;;0.88;;
77384;SDS011;66443;49.122;8.346;2022-12-29T04:14:50;4.37;;;1.23;;
77384;SDS011;66443;49.122;8.346;2022-12-29T04:17:15;1.10;;;1.00;;
77384;SDS011;66443;49.122;8.346;2022-12-29T04:19:40;4.63;;;1.30;;
77384;SDS011;66443;49.122;8.346;2022-12-29T04:22:06;2.10;;;1.20;;
77384;SDS011;66443;49.122;8.346;2022-12-29T04:24:31;1.20;;;0.90;;
77384;SDS011;66443;49.122;8.346;2022-12-29T04:26:56;1.23;;;1.10;;
77384;SDS011;66443;49.122;8.346;2022-12-29T04:29:21;2.20;;;1.33;;
77384;SDS011;66443;49.122;8.346;2022-12-29T04:31:46;1.20;;;1.10;;
77384;SDS011;66443;49.122;8.346;2022-12-29T04:34:11;1.10;;;1.00;;
77384;SDS011;66443;49.122;8.346;2022-12-29T04:36:37;1.33;;;1.23;;
77384;SDS011;66443;49.122;8.346;2022-12-29T04:39:04;1.57;;;1.47;;
77384;SDS011;66443;49.122;8.346;2022-12-29T04:41:30;3.33;;;1.10;;
77384;SDS011;66443;49.122;8.346;2022-12-29T04:43:55;1.00;;;1.00;;
77384;SDS011;66443;49.122;8.346;2022-12-29T04:46:20;1.20;;;1.10;;
77384;SDS011;66443;49.122;8.346;2022-12-29T04:48:45;2.10;;;1.33;;
77384;SDS011;66443;49.122;8.346;2022-12-29T04:51:10;1.50;;;1.20;;
77384;SDS011;66443;49.122;8.346;2022-12-29T04:53:36;1.20;;;1.07;;
77384;SDS011;66443;49.122;8.346;2022-12-29T04:56:01;2.55;;;1.10;;
77384;SDS011;66443;49.122;8.346;2022-12-29T04:58:26;1.30;;;1.20;;
77384;SDS011;66443;49.122;8.346;2022-12-29T05:00:51;1.50;;;1.40;;
77384;SDS011;66443;49.122;8.346;2022-12-29T05:03:16;3.80;;;1.30;;
77384;SDS011;66443;49.122;8.346;2022-12-29T05:05:42;1.47;;;1.30;;
77384;SDS011;66443;49.122;8.346;2022-12-29T05:08:07;3.63;;;1.30;;
77384;SDS011;66443;49.122;8.346;2022-12-29T05:10:32;1.20;;;1.10;;
77384;SDS011;66443;49.122;8.346;2022-12-29T05:12:57;2.67;;;1.33;;
77384;SDS011;66443;49.122;8.346;2022-12-29T05:15:22;1.40;;;1.30;;
77384;SDS011;66443;49.122;8.346;2022-12-29T05:17:47;1.27;;;1.10;;
77384;SDS011;66443;49.122;8.346;2022-12-29T05:20:13;4.40;;;1.30;;
77384;SDS011;66443;49.122;8.346;2022-12-29T05:22:38;1.10;;;1.00;;
77384;SDS011;66443;49.122;8.346;2022-12-29T05:25:03;2.93;;;1.27;;
77384;SDS011;66443;49.122;8.346;2022-12-29T05:27:28;1.10;;;1.10;;
77384;SDS011;66443;49.122;8.346;2022-12-29T05:29:54;1.63;;;1.30;;
77384;SDS011;66443;49.122;8.346;2022-12-29T05:32:19;4.20;;;1.93;;
77384;SDS011;66443;49.122;8.346;2022-12-29T05:34:44;1.67;;;1.30;;
77384;SDS011;66443;49.122;8.346;2022-12-29T05:37:09;3.57;;;1.27;;
77384;SDS011;66443;49.122;8.346;2022-12-29T05:39:34;1.70;;;1.30;;
77384;SDS011;66443;49.122;8.346;2022-12-29T05:42:00;1.63;;;1.27;;
77384;SDS011;66443;49.122;8.346;2022-12-29T05:44:25;1.33;;;1.23;;
77384;SDS011;66443;49.122;8.346;2022-12-29T05:46:50;1.37;;;1.27;;
77384;SDS011;66443;49.122;8.346;2022-12-29T05:49:15;2.70;;;1.30;;
77384;SDS011;66443;49.122;8.346;2022-12-29T05:51:40;1.77;;;1.20;;
77384;SDS011;66443;49.122;8.346;2022-12-29T05:54:06;2.75;;;1.30;;
77384;SDS011;66443;49.122;8.346;2022-12-29T05:56:31;4.10;;;1.47;;
77384;SDS011;66443;49.122;8.346;2022-12-29T05:58:56;1.00;;;0.90;;
77384;SDS011;66443;49.122;8.346;2022-12-29T06:01:21;1.33;;;1.20;;
77384;SDS011;66443;49.122;8.346;2022-12-29T06:03:46;2.90;;;1.30;;
77384;SDS011;66443;49.122;8.346;2022-12-29T06:06:11;4.97;;;1.60;;
77384;SDS011;66443;49.122;8.346;2022-12-29T06:08:36;3.93;;;1.40;;
77384;SDS011;66443;49.122;8.346;2022-12-29T06:11:02;1.50;;;1.38;;
77384;SDS011;66443;49.122;8.346;2022-12-29T06:13:27;2.70;;;1.43;;
77384;SDS011;66443;49.122;8.346;2022-12-29T06:15:52;2.23;;;1.53;;
77384;SDS011;66443;49.122;8.346;2022-12-29T06:18:18;2.33;;;1.30;;
77384;SDS011;66443;49.122;8.346;2022-12-29T06:20:43;1.47;;;1.37;;
77384;SDS011;66443;49.122;8.346;2022-12-29T06:23:08;1.53;;;1.43;;
77384;SDS011;66443;49.122;8.346;2022-12-29T06:25:33;3.03;;;1.97;;
77384;SDS011;66443;49.122;8.346;2022-12-29T06:28:00;2.83;;;1.80;;
77384;SDS011;66443;49.122;8.346;2022-12-29T06:30:25;3.60;;;1.50;;
77384;SDS011;66443;49.122;8.346;2022-12-29T06:32:51;6.50;;;1.90;;
77384;SDS011;66443;49.122;8.346;2022-12-29T06:35:16;4.03;;;1.63;;
77384;SDS011;66443;49.122;8.346;2022-12-29T06:37:41;1.30;;;1.20;;
77384;SDS011;66443;49.122;8.346;2022-12-29T06:40:06;1.77;;;1.60;;
77384;SDS011;66443;49.122;8.346;2022-12-29T06:42:32;2.50;;;1.50;;
77384;SDS011;66443;49.122;8.346;2022-12-29T06:44:57;2.53;;;1.77;;
77384;SDS011;66443;49.122;8.346;2022-12-29T06:47:24;2.20;;;1.70;;
77384;SDS011;66443;49.122;8.346;2022-12-29T06:49:49;1.67;;;1.40;;
77384;SDS011;66443;49.122;8.346;2022-12-29T06:52:14;1.80;;;1.70;;
77384;SDS011;66443;49.122;8.346;2022-12-29T06:54:40;3.47;;;1.88;;
77384;SDS011;66443;49.122;8.346;2022-12-29T06:57:05;1.90;;;1.70;;
77384;SDS011;66443;49.122;8.346;2022-12-29T06:59:30;2.00;;;1.40;;
77384;SDS011;66443;49.122;8.346;2022-12-29T07:01:55;2.30;;;1.33;;
77384;SDS011;66443;49.122;8.346;2022-12-29T07:04:20;1.38;;;1.27;;
77384;SDS011;66443;49.122;8.346;2022-12-29T07:06:45;1.80;;;1.70;;
77384;SDS011;66443;49.122;8.346;2022-12-29T07:09:11;1.98;;;1.77;;
77384;SDS011;66443;49.122;8.346;2022-12-29T07:11:36;1.57;;;1.47;;
77384;SDS011;66443;49.122;8.346;2022-12-29T07:14:01;3.93;;;1.80;;
77384;SDS011;66443;49.122;8.346;2022-12-29T07:16:27;1.93;;;1.77;;
77384;SDS011;66443;49.122;8.346;2022-12-29T07:18:54;2.40;;;1.63;;
77384;SDS011;66443;49.122;8.346;2022-12-29T07:21:19;2.73;;;1.70;;
77384;SDS011;66443;49.122;8.346;2022-12-29T07:23:44;2.17;;;2.00;;
77384;SDS011;66443;49.122;8.346;2022-12-29T07:26:11;1.80;;;1.70;;
77384;SDS011;66443;49.122;8.346;2022-12-29T07:28:36;1.93;;;1.83;;
77384;SDS011;66443;49.122;8.346;2022-12-29T07:31:03;2.00;;;1.80;;
77384;SDS011;66443;49.122;8.346;2022-12-29T07:33:28;1.73;;;1.60;;
77384;SDS011;66443;49.122;8.346;2022-12-29T07:35:53;1.80;;;1.70;;
77384;SDS011;66443;49.122;8.346;2022-12-29T07:38:18;3.67;;;1.90;;
77384;SDS011;66443;49.122;8.346;2022-12-29T07:40:44;2.17;;;1.77;;
77384;SDS011;66443;49.122;8.346;2022-12-29T07:43:09;3.20;;;1.63;;
77384;SDS011;66443;49.122;8.346;2022-12-29T07:45:34;1.50;;;1.40;;
77384;SDS011;66443;49.122;8.346;2022-12-29T07:47:59;2.00;;;1.55;;
77384;SDS011;66443;49.122;8.346;2022-12-29T07:50:24;2.22;;;1.90;;
77384;SDS011;66443;49.122;8.346;2022-12-29T07:52:49;3.23;;;1.93;;
77384;SDS011;66443;49.122;8.346;2022-12-29T07:55:15;3.10;;;2.00;;
77384;SDS011;66443;49.122;8.346;2022-12-29T07:57:40;5.77;;;1.70;;
77384;SDS011;66443;49.122;8.346;2022-12-29T08:00:06;1.80;;;1.70;;
77384;SDS011;66443;49.122;8.346;2022-12-29T08:02:31;3.83;;;1.87;;
77384;SDS011;66443;49.122;8.346;2022-12-29T08:04:56;1.77;;;1.33;;
77384;SDS011;66443;49.122;8.346;2022-12-29T08:07:21;1.87;;;1.73;;
77384;SDS011;66443;49.122;8.346;2022-12-29T08:09:46;2.00;;;1.63;;
77384;SDS011;66443;49.122;8.346;2022-12-29T08:12:12;5.47;;;2.30;;
77384;SDS011;66443;49.122;8.346;2022-12-29T08:14:37;2.72;;;1.70;;
77384;SDS011;66443;49.122;8.346;2022-12-29T08:17:02;4.40;;;1.97;;
77384;SDS011;66443;49.122;8.346;2022-12-29T08:19:27;3.00;;;1.80;;
77384;SDS011;66443;49.122;8.346;2022-12-29T08:21:52;1.93;;;1.50;;
77384;SDS011;66443;49.122;8.346;2022-12-29T08:24:18;2.67;;;1.77;;
77384;SDS011;66443;49.122;8.346;2022-12-29T08:26:43;1.93;;;1.70;;
77384;SDS011;66443;49.122;8.346;2022-12-29T08:29:08;3.07;;;1.53;;
77384;SDS011;66443;49.122;8.346;2022-12-29T08:31:34;1.63;;;1.53;;
77384;SDS011;66443;49.122;8.346;2022-12-29T08:33:59;3.10;;;2.10;;
77384;SDS011;66443;49.122;8.346;2022-12-29T08:36:24;6.13;;;1.77;;
77384;SDS011;66443;49.122;8.346;2022-12-29T08:38:50;1.93;;;1.83;;
77384;SDS011;66443;49.122;8.346;2022-12-29T08:41:15;1.95;;;1.77;;
77384;SDS011;66443;49.122;8.346;2022-12-29T08:43:40;2.73;;;1.60;;
77384;SDS011;66443;49.122;8.346;2022-12-29T08:46:05;3.27;;;1.90;;
77384;SDS011;66443;49.122;8.346;2022-12-29T08:48:30;6.30;;;2.27;;
77384;SDS011;66443;49.122;8.346;2022-12-29T08:50:56;3.53;;;1.60;;
77384;SDS011;66443;49.122;8.346;2022-12-29T08:53:21;1.97;;;1.73;;
77384;SDS011;66443;49.122;8.346;2022-12-29T08:55:47;4.20;;;2.00;;
77384;SDS011;66443;49.122;8.346;2022-12-29T08:58:12;3.90;;;1.87;;
77384;SDS011;66443;49.122;8.346;2022-12-29T09:00:39;1.97;;;1.80;;
77384;SDS011;66443;49.122;8.346;2022-12-29T09:03:05;2.60;;;1.70;;
77384;SDS011;66443;49.122;8.346;2022-12-29T09:05:30;2.55;;;2.00;;
77384;SDS011;66443;49.122;8.346;2022-12-29T09:07:55;3.03;;;1.80;;
77384;SDS011;66443;49.122;8.346;2022-12-29T09:10:20;1.97;;;1.63;;
77384;SDS011;66443;49.122;8.346;2022-12-29T09:12:45;1.92;;;1.58;;
77384;SDS011;66443;49.122;8.346;2022-12-29T09:15:10;2.13;;;1.80;;
77384;SDS011;66443;49.122;8.346;2022-12-29T09:17:37;2.20;;;1.93;;
77384;SDS011;66443;49.122;8.346;2022-12-29T09:20:15;1.97;;;1.73;;
77384;SDS011;66443;49.122;8.346;2022-12-29T09:22:41;3.00;;;1.90;;
77384;SDS011;66443;49.122;8.346;2022-12-29T09:25:06;3.33;;;1.70;;
77384;SDS011;66443;49.122;8.346;2022-12-29T09:27:32;2.50;;;1.90;;
77384;SDS011;66443;49.122;8.346;2022-12-29T09:29:57;2.93;;;1.90;;
77384;SDS011;66443;49.122;8.346;2022-12-29T09:32:22;2.87;;;2.00;;
77384;SDS011;66443;49.122;8.346;2022-12-29T09:34:47;3.23;;;2.00;;
77384;SDS011;66443;49.122;8.346;2022-12-29T09:37:12;2.30;;;1.80;;
77384;SDS011;66443;49.122;8.346;2022-12-29T09:39:38;3.13;;;2.60;;
77384;SDS011;66443;49.122;8.346;2022-12-29T09:44:44;2.23;;;1.80;;
77384;SDS011;66443;49.122;8.346;2022-12-29T09:47:13;2.17;;;1.90;;
77384;SDS011;66443;49.122;8.346;2022-12-29T09:49:49;1.80;;;1.67;;
77384;SDS011;66443;49.122;8.346;2022-12-29T09:52:25;1.97;;;1.83;;
77384;SDS011;66443;49.122;8.346;2022-12-29T09:54:58;3.03;;;1.90;;
77384;SDS011;66443;49.122;8.346;2022-12-29T09:57:25;2.03;;;1.43;;
77384;SDS011;66443;49.122;8.346;2022-12-29T09:59:53;3.93;;;1.70;;
77384;SDS011;66443;49.122;8.346;2022-12-29T10:02:23;1.50;;;1.40;;
77384;SDS011;66443;49.122;8.346;2022-12-29T10:04:52;3.53;;;1.67;;
77384;SDS011;66443;49.122;8.346;2022-12-29T10:07:23;1.73;;;1.50;;
77384;SDS011;66443;49.122;8.346;2022-12-29T10:20:32;2.53;;;1.47;;
77384;SDS011;66443;49.122;8.346;2022-12-29T10:23:10;1.40;;;1.30;;
77384;SDS011;66443;49.122;8.346;2022-12-29T10:25:38;1.27;;;1.17;;
77384;SDS011;66443;49.122;8.346;2022-12-29T10:28:04;2.57;;;1.37;;
77384;SDS011;66443;49.122;8.346;2022-12-29T10:30:31;2.67;;;1.40;;
77384;SDS011;66443;49.122;8.346;2022-12-29T10:32:58;1.77;;;1.47;;
77384;SDS011;66443;49.122;8.346;2022-12-29T10:35:24;1.30;;;1.20;;
77384;SDS011;66443;49.122;8.346;2022-12-29T10:40:18;1.48;;;0.70;;
77384;SDS011;66443;49.122;8.346;2022-12-29T10:42:45;1.07;;;0.87;;
77384;SDS011;66443;49.122;8.346;2022-12-29T10:45:12;1.00;;;1.00;;
77384;SDS011;66443;49.122;8.346;2022-12-29T10:47:40;3.37;;;1.63;;
77384;SDS011;66443;49.122;8.346;2022-12-29T10:50:07;1.80;;;1.53;;
77384;SDS011;66443;49.122;8.346;2022-12-29T10:52:32;1.50;;;1.40;;
77384;SDS011;66443;49.122;8.346;2022-12-29T10:54:59;5.97;;;1.87;;
77384;SDS011;66443;49.122;8.346;2022-12-29T10:57:30;3.73;;;1.93;;
77384;SDS011;66443;49.122;8.346;2022-12-29T10:59:56;2.33;;;1.80;;
77384;SDS011;66443;49.122;8.346;2022-12-29T11:02:26;2.10;;;1.73;;
77384;SDS011;66443;49.122;8.346;2022-12-29T11:05:02;1.40;;;1.30;;
77384;SDS011;66443;49.122;8.346;2022-12-29T11:07:29;2.03;;;1.50;;
77384;SDS011;66443;49.122;8.346;2022-12-29T11:09:55;1.63;;;1.53;;
77384;SDS011;66443;49.122;8.346;2022-12-29T11:14:45;2.72;;;2.53;;
77384;SDS011;66443;49.122;8.346;2022-12-29T11:17:14;2.40;;;1.67;;
77384;SDS011;66443;49.122;8.346;2022-12-29T11:19:39;2.30;;;1.60;;
77384;SDS011;66443;49.122;8.346;2022-12-29T11:22:20;5.40;;;2.53;;
77384;SDS011;66443;49.122;8.346;2022-12-29T11:24:46;1.40;;;1.30;;
77384;SDS011;66443;49.122;8.346;2022-12-29T11:27:30;2.43;;;1.80;;
77384;SDS011;66443;49.122;8.346;2022-12-29T11:29:55;2.57;;;2.00;;
77384;SDS011;66443;49.122;8.346;2022-12-29T11:34:45;1.67;;;1.52;;
77384;SDS011;66443;49.122;8.346;2022-12-29T11:37:12;2.60;;;1.47;;
77384;SDS011;66443;49.122;8.346;2022-12-29T11:39:39;2.47;;;1.63;;
77384;SDS011;66443;49.122;8.346;2022-12-29T11:42:06;2.07;;;1.70;;
77384;SDS011;66443;49.122;8.346;2022-12-29T11:44:36;2.30;;;1.80;;
77384;SDS011;66443;49.122;8.346;2022-12-29T11:47:02;3.33;;;1.30;;
77384;SDS011;66443;49.122;8.346;2022-12-29T11:49:28;2.57;;;1.70;;
77384;SDS011;66443;49.122;8.346;2022-12-29T11:51:53;2.50;;;1.40;;
77384;SDS011;66443;49.122;8.346;2022-12-29T11:54:23;1.30;;;1.20;;
77384;SDS011;66443;49.122;8.346;2022-12-29T11:56:49;5.80;;;1.90;;
77384;SDS011;66443;49.122;8.346;2022-12-29T12:01:57;1.67;;;1.20;;
77384;SDS011;66443;49.122;8.346;2022-12-29T12:04:23;1.40;;;1.30;;
77384;SDS011;66443;49.122;8.346;2022-12-29T12:09:25;2.27;;;1.13;;
77384;SDS011;66443;49.122;8.346;2022-12-29T12:11:54;1.93;;;1.33;;
77384;SDS011;66443;49.122;8.346;2022-12-29T12:14:20;1.97;;;1.37;;
77384;SDS011;66443;49.122;8.346;2022-12-29T12:16:48;2.17;;;1.77;;
77384;SDS011;66443;49.122;8.346;2022-12-29T12:21:41;1.63;;;1.20;;
77384;SDS011;66443;49.122;8.346;2022-12-29T12:24:15;4.40;;;1.60;;
77384;SDS011;66443;49.122;8.346;2022-12-29T12:26:49;1.90;;;1.40;;
77384;SDS011;66443;49.122;8.346;2022-12-29T12:29:25;2.67;;;1.60;;
77384;SDS011;66443;49.122;8.346;2022-12-29T12:31:54;2.33;;;1.20;;
77384;SDS011;66443;49.122;8.346;2022-12-29T12:34:29;2.63;;;1.40;;
77384;SDS011;66443;49.122;8.346;2022-12-29T12:36:59;1.87;;;1.30;;
77384;SDS011;66443;49.122;8.346;2022-12-29T12:39:27;7.00;;;0.90;;
77384;SDS011;66443;49.122;8.346;2022-12-29T12:50:08;1.27;;;0.80;;
77384;SDS011;66443;49.122;8.346;2022-12-29T12:57:49;1.20;;;1.10;;
77384;SDS011;66443;49.122;8.346;2022-12-29T13:00:19;0.93;;;0.80;;
77384;SDS011;66443;49.122;8.346;2022-12-29T13:03:04;2.07;;;1.20;;
77384;SDS011;66443;49.122;8.346;2022-12-29T13:19:04;1.40;;;0.80;;
77384;SDS011;66443;49.122;8.346;2022-12-29T13:24:02;1.80;;;0.83;;
77384;SDS011;66443;49.122;8.346;2022-12-29T13:26:32;1.83;;;1.73;;
77384;SDS011;66443;49.122;8.346;2022-12-29T13:33:51;1.15;;;1.05;;
77384;SDS011;66443;49.122;8.346;2022-12-29T13:36:23;1.17;;;1.07;;
77384;SDS011;66443;49.122;8.346;2022-12-29T13:38:57;0.87;;;0.80;;
77384;SDS011;66443;49.122;8.346;2022-12-29T13:43:52;1.05;;;0.95;;
77384;SDS011;66443;49.122;8.346;2022-12-29T13:46:21;1.60;;;0.90;;
77384;SDS011;66443;49.122;8.346;2022-12-29T13:48:54;2.30;;;1.10;;
77384;SDS011;66443;49.122;8.346;2022-12-29T13:51:21;1.73;;;0.70;;
77384;SDS011;66443;49.122;8.346;2022-12-29T13:53:53;0.83;;;0.70;;
77384;SDS011;66443;49.122;8.346;2022-12-29T13:56:38;0.97;;;0.90;;
77384;SDS011;66443;49.122;8.346;2022-12-29T14:01:38;0.70;;;0.70;;
77384;SDS011;66443;49.122;8.346;2022-12-29T14:04:14;1.10;;;0.90;;
77384;SDS011;66443;49.122;8.346;2022-12-29T14:06:45;0.80;;;0.73;;
77384;SDS011;66443;49.122;8.346;2022-12-29T14:09:27;0.70;;;0.63;;
77384;SDS011;66443;49.122;8.346;2022-12-29T14:11:55;1.10;;;0.73;;
77384;SDS011;66443;49.122;8.346;2022-12-29T14:16:46;0.60;;;0.60;;
77384;SDS011;66443;49.122;8.346;2022-12-29T14:21:49;1.47;;;1.37;;
77384;SDS011;66443;49.122;8.346;2022-12-29T14:26:53;0.50;;;0.50;;
77384;SDS011;66443;49.122;8.346;2022-12-29T14:31:46;0.80;;;0.80;;
77384;SDS011;66443;49.122;8.346;2022-12-29T14:36:40;1.70;;;0.90;;
77384;SDS011;66443;49.122;8.346;2022-12-29T14:41:59;0.60;;;0.60;;
77384;SDS011;66443;49.122;8.346;2022-12-29T14:44:24;1.77;;;1.10;;
77384;SDS011;66443;49.122;8.346;2022-12-29T14:49:19;1.03;;;1.03;;
77384;SDS011;66443;49.122;8.346;2022-12-29T14:51:45;1.43;;;1.20;;
77384;SDS011;66443;49.122;8.346;2022-12-29T14:56:56;1.60;;;1.00;;
77384;SDS011;66443;49.122;8.346;2022-12-29T14:59:23;1.20;;;1.10;;
77384;SDS011;66443;49.122;8.346;2022-12-29T15:01:50;1.40;;;1.00;;
77384;SDS011;66443;49.122;8.346;2022-12-29T15:04:21;1.63;;;1.40;;
77384;SDS011;66443;49.122;8.346;2022-12-29T15:06:48;1.10;;;1.00;;
77384;SDS011;66443;49.122;8.346;2022-12-29T15:14:25;1.00;;;0.90;;
77384;SDS011;66443;49.122;8.346;2022-12-29T15:16:49;3.23;;;1.27;;
77384;SDS011;66443;49.122;8.346;2022-12-29T15:19:21;1.40;;;0.80;;
77384;SDS011;66443;49.122;8.346;2022-12-29T15:21:47;2.23;;;0.90;;
77384;SDS011;66443;49.122;8.346;2022-12-29T15:24:12;2.03;;;0.80;;
77384;SDS011;66443;49.122;8.346;2022-12-29T15:26:41;1.73;;;0.93;;
77384;SDS011;66443;49.122;8.346;2022-12-29T15:31:51;1.93;;;0.90;;
77384;SDS011;66443;49.122;8.346;2022-12-29T15:34:16;1.90;;;0.90;;
77384;SDS011;66443;49.122;8.346;2022-12-29T15:36:46;1.10;;;0.87;;
77384;SDS011;66443;49.122;8.346;2022-12-29T15:39:18;0.80;;;0.70;;
77384;SDS011;66443;49.122;8.346;2022-12-29T15:41:44;2.63;;;1.00;;
77384;SDS011;66443;49.122;8.346;2022-12-29T15:46:56;1.33;;;1.00;;
77384;SDS011;66443;49.122;8.346;2022-12-29T15:49:21;1.50;;;1.03;;
77384;SDS011;66443;49.122;8.346;2022-12-29T15:51:48;3.23;;;1.20;;
77384;SDS011;66443;49.122;8.346;2022-12-29T15:54:17;1.10;;;1.00;;
77384;SDS011;66443;49.122;8.346;2022-12-29T15:56:43;2.83;;;0.90;;
77384;SDS011;66443;49.122;8.346;2022-12-29T15:59:28;1.03;;;0.90;;
77384;SDS011;66443;49.122;8.346;2022-12-29T16:01:54;1.93;;;0.70;;
77384;SDS011;66443;49.122;8.346;2022-12-29T16:04:20;1.60;;;1.30;;
77384;SDS011;66443;49.122;8.346;2022-12-29T16:06:54;1.57;;;1.00;;
77384;SDS011;66443;49.122;8.346;2022-12-29T16:09:28;1.20;;;1.00;;
77384;SDS011;66443;49.122;8.346;2022-12-29T16:11:54;2.13;;;1.00;;
77384;SDS011;66443;49.122;8.346;2022-12-29T16:14:24;1.97;;;1.17;;
77384;SDS011;66443;49.122;8.346;2022-12-29T16:16:51;1.77;;;1.50;;
77384;SDS011;66443;49.122;8.346;2022-12-29T16:19:35;2.27;;;1.10;;
77384;SDS011;66443;49.122;8.346;2022-12-29T16:22:01;2.30;;;1.40;;
77384;SDS011;66443;49.122;8.346;2022-12-29T16:24:29;1.13;;;1.03;;
77384;SDS011;66443;49.122;8.346;2022-12-29T16:29:29;1.60;;;1.27;;
77384;SDS011;66443;49.122;8.346;2022-12-29T16:31:57;2.10;;;0.93;;
77384;SDS011;66443;49.122;8.346;2022-12-29T16:34:42;1.10;;;0.73;;
77384;SDS011;66443;49.122;8.346;2022-12-29T16:37:29;3.30;;;1.30;;
77384;SDS011;66443;49.122;8.346;2022-12-29T16:39:54;3.83;;;0.80;;
77384;SDS011;66443;49.122;8.346;2022-12-29T16:45:00;2.20;;;1.23;;
77384;SDS011;66443;49.122;8.346;2022-12-29T16:47:32;1.50;;;1.40;;
77384;SDS011;66443;49.122;8.346;2022-12-29T16:49:57;1.23;;;0.90;;
77384;SDS011;66443;49.122;8.346;2022-12-29T16:52:35;2.03;;;1.30;;
77384;SDS011;66443;49.122;8.346;2022-12-29T16:55:00;1.50;;;1.23;;
77384;SDS011;66443;49.122;8.346;2022-12-29T16:57:30;2.87;;;1.00;;
77384;SDS011;66443;49.122;8.346;2022-12-29T16:59:56;1.47;;;0.97;;
77384;SDS011;66443;49.122;8.346;2022-12-29T17:02:22;2.73;;;1.13;;
77384;SDS011;66443;49.122;8.346;2022-12-29T17:04:48;2.17;;;1.30;;